sensor_id;sensor_type;location;lat;lon;timestamp;P1;durP1;ratioP1;P2;durP2;ratioP2
54919;SDS011;63804;53.120;8.764;2024-03-23T00:54:29;21.77;;;4.07;;
54919;SDS011;63804;53.120;8.764;2024-03-23T00:56:55;20.73;;;4.28;;
54919;SDS011;63804;53.120;8.764;2024-03-23T00:59:21;21.63;;;4.65;;
54919;SDS011;63804;53.120;8.764;2024-03-23T01:01:48;21.63;;;4.07;;
54919;SDS011;63804;53.120;8.764;2024-03-23T01:04:14;27.17;;;5.20;;
54919;SDS011;63804;53.120;8.764;2024-03-23T01:06:40;20.50;;;4.20;;
54919;SDS011;63804;53.120;8.764;2024-03-23T01:09:06;21.90;;;3.85;;
54919;SDS011;63804;53.120;8.764;2024-03-23T01:11:32;20.92;;;4.43;;
54919;SDS011;63804;53.120;8.764;2024-03-23T01:13:58;23.25;;;5.10;;
54919;SDS011;63804;53.120;8.764;2024-03-23T01:16:24;19.25;;;4.60;;
54919;SDS011;63804;53.120;8.764;2024-03-23T01:18:50;17.17;;;4.15;;
54919;SDS011;63804;53.120;8.764;2024-03-23T01:21:16;20.88;;;4.07;;
54919;SDS011;63804;53.120;8.764;2024-03-23T01:23:42;23.10;;;4.68;;
54919;SDS011;63804;53.120;8.764;2024-03-23T01:26:08;20.17;;;3.78;;
54919;SDS011;63804;53.120;8.764;2024-03-23T01:28:35;16.83;;;4.05;;
54919;SDS011;63804;53.120;8.764;2024-03-23T01:31:01;23.95;;;4.65;;
54919;SDS011;63804;53.120;8.764;2024-03-23T01:33:27;24.35;;;4.40;;
54919;SDS011;63804;53.120;8.764;2024-03-23T01:35:53;19.88;;;4.07;;
54919;SDS011;63804;53.120;8.764;2024-03-23T01:38:19;20.70;;;3.95;;
54919;SDS011;63804;53.120;8.764;2024-03-23T01:40:45;20.90;;;3.65;;
54919;SDS011;63804;53.120;8.764;2024-03-23T01:43:12;19.35;;;4.05;;
54919;SDS011;63804;53.120;8.764;2024-03-23T01:45:38;18.13;;;4.13;;
54919;SDS011;63804;53.120;8.764;2024-03-23T01:48:04;21.40;;;3.53;;
54919;SDS011;63804;53.120;8.764;2024-03-23T01:50:30;20.65;;;3.85;;
54919;SDS011;63804;53.120;8.764;2024-03-23T01:53:02;26.52;;;4.40;;
54919;SDS011;63804;53.120;8.764;2024-03-23T01:55:31;16.98;;;3.90;;
54919;SDS011;63804;53.120;8.764;2024-03-23T01:57:58;18.35;;;3.83;;
54919;SDS011;63804;53.120;8.764;2024-03-23T02:00:24;19.40;;;4.05;;
54919;SDS011;63804;53.120;8.764;2024-03-23T02:02:50;18.58;;;3.92;;
54919;SDS011;63804;53.120;8.764;2024-03-23T02:05:16;20.77;;;3.78;;
54919;SDS011;63804;53.120;8.764;2024-03-23T02:07:43;22.85;;;4.07;;
54919;SDS011;63804;53.120;8.764;2024-03-23T02:10:09;22.88;;;4.10;;
54919;SDS011;63804;53.120;8.764;2024-03-23T02:12:36;18.48;;;4.25;;
54919;SDS011;63804;53.120;8.764;2024-03-23T02:15:03;20.92;;;4.05;;
54919;SDS011;63804;53.120;8.764;2024-03-23T02:17:29;18.58;;;4.10;;
54919;SDS011;63804;53.120;8.764;2024-03-23T02:19:56;21.67;;;3.72;;
54919;SDS011;63804;53.120;8.764;2024-03-23T02:22:22;18.30;;;3.97;;
54919;SDS011;63804;53.120;8.764;2024-03-23T02:24:48;16.02;;;3.72;;
54919;SDS011;63804;53.120;8.764;2024-03-23T02:27:17;24.25;;;4.10;;
54919;SDS011;63804;53.120;8.764;2024-03-23T02:29:43;23.48;;;4.30;;
54919;SDS011;63804;53.120;8.764;2024-03-23T02:32:09;22.17;;;4.05;;
54919;SDS011;63804;53.120;8.764;2024-03-23T02:34:35;19.30;;;4.20;;
54919;SDS011;63804;53.120;8.764;2024-03-23T02:37:01;23.80;;;4.40;;
54919;SDS011;63804;53.120;8.764;2024-03-23T02:39:27;17.65;;;3.38;;
54919;SDS011;63804;53.120;8.764;2024-03-23T02:41:54;23.05;;;4.63;;
54919;SDS011;63804;53.120;8.764;2024-03-23T02:44:20;19.63;;;3.60;;
54919;SDS011;63804;53.120;8.764;2024-03-23T02:46:46;23.45;;;3.72;;
54919;SDS011;63804;53.120;8.764;2024-03-23T02:49:13;20.83;;;3.90;;
54919;SDS011;63804;53.120;8.764;2024-03-23T02:51:40;17.88;;;3.83;;
54919;SDS011;63804;53.120;8.764;2024-03-23T02:54:06;22.33;;;4.38;;
54919;SDS011;63804;53.120;8.764;2024-03-23T02:56:32;22.67;;;4.03;;
54919;SDS011;63804;53.120;8.764;2024-03-23T02:58:58;19.90;;;4.15;;
54919;SDS011;63804;53.120;8.764;2024-03-23T03:01:24;27.02;;;4.63;;
54919;SDS011;63804;53.120;8.764;2024-03-23T03:03:51;21.77;;;4.13;;
54919;SDS011;63804;53.120;8.764;2024-03-23T03:06:24;19.45;;;4.40;;
54919;SDS011;63804;53.120;8.764;2024-03-23T03:08:51;18.10;;;3.75;;
54919;SDS011;63804;53.120;8.764;2024-03-23T03:11:17;20.90;;;4.18;;
54919;SDS011;63804;53.120;8.764;2024-03-23T03:13:43;19.73;;;4.10;;
54919;SDS011;63804;53.120;8.764;2024-03-23T03:16:12;20.20;;;4.50;;
54919;SDS011;63804;53.120;8.764;2024-03-23T03:18:38;24.00;;;4.70;;
54919;SDS011;63804;53.120;8.764;2024-03-23T03:21:06;19.08;;;4.05;;
54919;SDS011;63804;53.120;8.764;2024-03-23T03:23:37;16.50;;;3.85;;
54919;SDS011;63804;53.120;8.764;2024-03-23T03:26:03;16.52;;;3.78;;
54919;SDS011;63804;53.120;8.764;2024-03-23T03:28:33;19.27;;;3.70;;
54919;SDS011;63804;53.120;8.764;2024-03-23T03:31:00;21.63;;;4.07;;
54919;SDS011;63804;53.120;8.764;2024-03-23T03:33:27;18.50;;;3.58;;
54919;SDS011;63804;53.120;8.764;2024-03-23T03:35:53;17.83;;;3.72;;
54919;SDS011;63804;53.120;8.764;2024-03-23T03:38:20;21.63;;;4.47;;
54919;SDS011;63804;53.120;8.764;2024-03-23T03:40:46;23.92;;;3.85;;
54919;SDS011;63804;53.120;8.764;2024-03-23T03:43:12;21.92;;;4.13;;
54919;SDS011;63804;53.120;8.764;2024-03-23T03:45:38;19.40;;;4.70;;
54919;SDS011;63804;53.120;8.764;2024-03-23T03:48:04;19.38;;;3.80;;
54919;SDS011;63804;53.120;8.764;2024-03-23T03:50:30;20.58;;;4.43;;
54919;SDS011;63804;53.120;8.764;2024-03-23T03:52:56;17.98;;;3.63;;
54919;SDS011;63804;53.120;8.764;2024-03-23T03:55:22;21.25;;;4.03;;
54919;SDS011;63804;53.120;8.764;2024-03-23T03:57:48;22.17;;;4.07;;
54919;SDS011;63804;53.120;8.764;2024-03-23T04:00:14;20.73;;;4.03;;
54919;SDS011;63804;53.120;8.764;2024-03-23T04:02:41;15.18;;;3.78;;
54919;SDS011;63804;53.120;8.764;2024-03-23T04:05:07;20.80;;;4.22;;
54919;SDS011;63804;53.120;8.764;2024-03-23T04:07:33;18.80;;;4.43;;
54919;SDS011;63804;53.120;8.764;2024-03-23T04:09:59;22.13;;;3.95;;
54919;SDS011;63804;53.120;8.764;2024-03-23T04:12:26;18.50;;;3.72;;
54919;SDS011;63804;53.120;8.764;2024-03-23T04:14:52;28.42;;;4.80;;
54919;SDS011;63804;53.120;8.764;2024-03-23T04:17:18;27.73;;;4.43;;
54919;SDS011;63804;53.120;8.764;2024-03-23T04:19:45;22.73;;;4.07;;
54919;SDS011;63804;53.120;8.764;2024-03-23T04:22:11;25.88;;;4.43;;
54919;SDS011;63804;53.120;8.764;2024-03-23T04:24:37;19.50;;;4.63;;
54919;SDS011;63804;53.120;8.764;2024-03-23T04:27:03;20.70;;;4.07;;
54919;SDS011;63804;53.120;8.764;2024-03-23T04:29:29;23.13;;;4.55;;
54919;SDS011;63804;53.120;8.764;2024-03-23T04:31:55;15.93;;;3.60;;
54919;SDS011;63804;53.120;8.764;2024-03-23T04:34:22;19.60;;;3.85;;
54919;SDS011;63804;53.120;8.764;2024-03-23T04:36:48;19.42;;;4.25;;
54919;SDS011;63804;53.120;8.764;2024-03-23T04:39:15;21.67;;;4.97;;
54919;SDS011;63804;53.120;8.764;2024-03-23T04:41:41;21.05;;;4.45;;
54919;SDS011;63804;53.120;8.764;2024-03-23T04:44:07;18.55;;;3.67;;
54919;SDS011;63804;53.120;8.764;2024-03-23T04:46:33;19.92;;;4.30;;
54919;SDS011;63804;53.120;8.764;2024-03-23T04:48:59;21.30;;;4.50;;
54919;SDS011;63804;53.120;8.764;2024-03-23T04:51:25;21.75;;;4.13;;
54919;SDS011;63804;53.120;8.764;2024-03-23T04:53:52;18.40;;;3.80;;
54919;SDS011;63804;53.120;8.764;2024-03-23T04:56:18;20.45;;;4.38;;
54919;SDS011;63804;53.120;8.764;2024-03-23T04:58:44;20.60;;;3.50;;
54919;SDS011;63804;53.120;8.764;2024-03-23T05:01:10;18.85;;;3.63;;
54919;SDS011;63804;53.120;8.764;2024-03-23T05:03:37;24.77;;;4.55;;
54919;SDS011;63804;53.120;8.764;2024-03-23T05:06:03;19.73;;;3.25;;
54919;SDS011;63804;53.120;8.764;2024-03-23T05:08:31;25.92;;;4.10;;
54919;SDS011;63804;53.120;8.764;2024-03-23T05:10:57;19.90;;;4.03;;
54919;SDS011;63804;53.120;8.764;2024-03-23T05:13:23;17.58;;;3.25;;
54919;SDS011;63804;53.120;8.764;2024-03-23T05:15:53;21.48;;;4.20;;
54919;SDS011;63804;53.120;8.764;2024-03-23T05:18:19;22.88;;;3.70;;
54919;SDS011;63804;53.120;8.764;2024-03-23T05:20:45;19.92;;;4.28;;
54919;SDS011;63804;53.120;8.764;2024-03-23T05:23:11;19.92;;;3.85;;
54919;SDS011;63804;53.120;8.764;2024-03-23T05:25:37;19.75;;;3.53;;
54919;SDS011;63804;53.120;8.764;2024-03-23T05:28:04;15.63;;;3.45;;
54919;SDS011;63804;53.120;8.764;2024-03-23T05:30:31;19.02;;;4.75;;
54919;SDS011;63804;53.120;8.764;2024-03-23T05:32:57;23.77;;;4.13;;
54919;SDS011;63804;53.120;8.764;2024-03-23T05:35:23;18.38;;;3.35;;
54919;SDS011;63804;53.120;8.764;2024-03-23T05:37:49;20.88;;;3.50;;
54919;SDS011;63804;53.120;8.764;2024-03-23T05:40:15;18.48;;;3.83;;
54919;SDS011;63804;53.120;8.764;2024-03-23T05:42:41;17.77;;;3.10;;
54919;SDS011;63804;53.120;8.764;2024-03-23T05:45:07;23.08;;;4.05;;
54919;SDS011;63804;53.120;8.764;2024-03-23T05:47:34;20.20;;;3.90;;
54919;SDS011;63804;53.120;8.764;2024-03-23T05:50:00;17.67;;;3.78;;
54919;SDS011;63804;53.120;8.764;2024-03-23T05:52:27;18.70;;;3.92;;
54919;SDS011;63804;53.120;8.764;2024-03-23T05:54:53;18.30;;;4.10;;
54919;SDS011;63804;53.120;8.764;2024-03-23T05:57:19;16.60;;;3.33;;
54919;SDS011;63804;53.120;8.764;2024-03-23T05:59:46;20.15;;;3.97;;
54919;SDS011;63804;53.120;8.764;2024-03-23T06:02:12;20.00;;;4.07;;
54919;SDS011;63804;53.120;8.764;2024-03-23T06:04:38;24.15;;;4.50;;
54919;SDS011;63804;53.120;8.764;2024-03-23T06:07:04;22.88;;;4.40;;
54919;SDS011;63804;53.120;8.764;2024-03-23T06:09:32;18.70;;;4.25;;
54919;SDS011;63804;53.120;8.764;2024-03-23T06:11:58;25.23;;;4.65;;
54919;SDS011;63804;53.120;8.764;2024-03-23T06:14:24;23.20;;;3.78;;
54919;SDS011;63804;53.120;8.764;2024-03-23T06:16:50;20.85;;;3.30;;
54919;SDS011;63804;53.120;8.764;2024-03-23T06:19:16;19.20;;;4.25;;
54919;SDS011;63804;53.120;8.764;2024-03-23T06:21:45;21.23;;;4.75;;
54919;SDS011;63804;53.120;8.764;2024-03-23T06:24:11;24.58;;;4.70;;
54919;SDS011;63804;53.120;8.764;2024-03-23T06:26:38;23.02;;;3.92;;
54919;SDS011;63804;53.120;8.764;2024-03-23T06:29:04;15.98;;;4.00;;
54919;SDS011;63804;53.120;8.764;2024-03-23T06:31:31;17.88;;;3.72;;
54919;SDS011;63804;53.120;8.764;2024-03-23T06:33:57;18.33;;;4.38;;
54919;SDS011;63804;53.120;8.764;2024-03-23T06:36:23;17.52;;;4.25;;
54919;SDS011;63804;53.120;8.764;2024-03-23T06:38:49;23.10;;;3.92;;
54919;SDS011;63804;53.120;8.764;2024-03-23T06:41:15;22.45;;;4.65;;
54919;SDS011;63804;53.120;8.764;2024-03-23T06:43:41;24.10;;;4.03;;
54919;SDS011;63804;53.120;8.764;2024-03-23T06:46:07;24.02;;;4.10;;
54919;SDS011;63804;53.120;8.764;2024-03-23T06:48:33;19.05;;;3.90;;
54919;SDS011;63804;53.120;8.764;2024-03-23T06:50:59;17.83;;;3.58;;
54919;SDS011;63804;53.120;8.764;2024-03-23T06:53:25;25.63;;;4.85;;
54919;SDS011;63804;53.120;8.764;2024-03-23T06:55:54;16.92;;;3.90;;
54919;SDS011;63804;53.120;8.764;2024-03-23T06:58:21;22.55;;;3.90;;
54919;SDS011;63804;53.120;8.764;2024-03-23T07:00:49;23.15;;;4.70;;
54919;SDS011;63804;53.120;8.764;2024-03-23T07:03:16;21.92;;;4.22;;
54919;SDS011;63804;53.120;8.764;2024-03-23T07:05:42;25.35;;;4.55;;
54919;SDS011;63804;53.120;8.764;2024-03-23T07:08:08;20.27;;;4.57;;
54919;SDS011;63804;53.120;8.764;2024-03-23T07:10:34;19.77;;;3.38;;
54919;SDS011;63804;53.120;8.764;2024-03-23T07:13:01;18.95;;;4.22;;
54919;SDS011;63804;53.120;8.764;2024-03-23T07:15:27;18.33;;;4.57;;
54919;SDS011;63804;53.120;8.764;2024-03-23T07:17:53;17.85;;;3.63;;
54919;SDS011;63804;53.120;8.764;2024-03-23T07:20:19;19.95;;;3.60;;
54919;SDS011;63804;53.120;8.764;2024-03-23T07:22:45;18.25;;;3.78;;
54919;SDS011;63804;53.120;8.764;2024-03-23T07:25:13;16.92;;;3.95;;
54919;SDS011;63804;53.120;8.764;2024-03-23T07:27:39;21.05;;;4.10;;
54919;SDS011;63804;53.120;8.764;2024-03-23T07:30:06;14.73;;;3.55;;
54919;SDS011;63804;53.120;8.764;2024-03-23T07:32:32;19.88;;;3.75;;
54919;SDS011;63804;53.120;8.764;2024-03-23T07:34:58;18.42;;;4.00;;
54919;SDS011;63804;53.120;8.764;2024-03-23T07:37:24;21.20;;;3.72;;
54919;SDS011;63804;53.120;8.764;2024-03-23T07:39:51;24.75;;;4.47;;
54919;SDS011;63804;53.120;8.764;2024-03-23T07:42:17;17.50;;;4.97;;
54919;SDS011;63804;53.120;8.764;2024-03-23T07:44:43;21.92;;;4.18;;
54919;SDS011;63804;53.120;8.764;2024-03-23T07:47:09;17.80;;;4.03;;
54919;SDS011;63804;53.120;8.764;2024-03-23T07:49:35;21.92;;;3.65;;
54919;SDS011;63804;53.120;8.764;2024-03-23T07:52:01;19.13;;;3.80;;
54919;SDS011;63804;53.120;8.764;2024-03-23T07:54:27;22.27;;;3.70;;
54919;SDS011;63804;53.120;8.764;2024-03-23T07:56:54;19.60;;;4.38;;
54919;SDS011;63804;53.120;8.764;2024-03-23T07:59:20;19.95;;;3.80;;
54919;SDS011;63804;53.120;8.764;2024-03-23T08:01:46;16.50;;;3.58;;
54919;SDS011;63804;53.120;8.764;2024-03-23T08:04:12;19.20;;;3.55;;
54919;SDS011;63804;53.120;8.764;2024-03-23T08:06:38;18.13;;;4.35;;
54919;SDS011;63804;53.120;8.764;2024-03-23T08:09:04;18.52;;;3.30;;
54919;SDS011;63804;53.120;8.764;2024-03-23T08:11:31;16.77;;;4.05;;
54919;SDS011;63804;53.120;8.764;2024-03-23T08:13:57;20.95;;;3.95;;
54919;SDS011;63804;53.120;8.764;2024-03-23T08:16:24;21.27;;;3.53;;
54919;SDS011;63804;53.120;8.764;2024-03-23T08:18:53;18.20;;;3.40;;
54919;SDS011;63804;53.120;8.764;2024-03-23T08:21:22;21.10;;;3.75;;
54919;SDS011;63804;53.120;8.764;2024-03-23T08:23:48;16.30;;;3.15;;
54919;SDS011;63804;53.120;8.764;2024-03-23T08:26:15;16.45;;;3.03;;
54919;SDS011;63804;53.120;8.764;2024-03-23T08:28:43;14.68;;;2.95;;
54919;SDS011;63804;53.120;8.764;2024-03-23T08:31:10;18.23;;;3.25;;
54919;SDS011;63804;53.120;8.764;2024-03-23T08:33:37;19.35;;;3.20;;
54919;SDS011;63804;53.120;8.764;2024-03-23T08:36:05;17.90;;;3.38;;
54919;SDS011;63804;53.120;8.764;2024-03-23T08:38:33;15.57;;;3.55;;
54919;SDS011;63804;53.120;8.764;2024-03-23T08:41:00;14.85;;;2.70;;
54919;SDS011;63804;53.120;8.764;2024-03-23T08:43:40;22.13;;;3.95;;
54919;SDS011;63804;53.120;8.764;2024-03-23T08:46:11;13.93;;;2.90;;
54919;SDS011;63804;53.120;8.764;2024-03-23T08:48:38;15.25;;;3.05;;
54919;SDS011;63804;53.120;8.764;2024-03-23T08:51:07;12.43;;;2.63;;
54919;SDS011;63804;53.120;8.764;2024-03-23T08:53:37;16.70;;;3.53;;
54919;SDS011;63804;53.120;8.764;2024-03-23T08:56:04;12.68;;;2.60;;
54919;SDS011;63804;53.120;8.764;2024-03-23T08:58:32;17.42;;;2.72;;
54919;SDS011;63804;53.120;8.764;2024-03-23T09:01:08;16.25;;;3.13;;
54919;SDS011;63804;53.120;8.764;2024-03-23T09:03:36;14.13;;;2.92;;
54919;SDS011;63804;53.120;8.764;2024-03-23T09:06:06;9.52;;;2.25;;
54919;SDS011;63804;53.120;8.764;2024-03-23T09:08:33;11.32;;;2.25;;
54919;SDS011;63804;53.120;8.764;2024-03-23T09:11:03;12.05;;;2.20;;
54919;SDS011;63804;53.120;8.764;2024-03-23T09:13:34;8.93;;;1.92;;
54919;SDS011;63804;53.120;8.764;2024-03-23T09:16:02;15.82;;;2.58;;
54919;SDS011;63804;53.120;8.764;2024-03-23T09:18:30;15.98;;;2.40;;
54919;SDS011;63804;53.120;8.764;2024-03-23T09:20:58;16.23;;;2.58;;
54919;SDS011;63804;53.120;8.764;2024-03-23T09:23:24;8.80;;;1.92;;
54919;SDS011;63804;53.120;8.764;2024-03-23T09:25:50;16.80;;;2.63;;
54919;SDS011;63804;53.120;8.764;2024-03-23T09:28:16;15.15;;;2.90;;
54919;SDS011;63804;53.120;8.764;2024-03-23T09:30:42;11.45;;;2.80;;
54919;SDS011;63804;53.120;8.764;2024-03-23T09:33:09;12.65;;;2.40;;
54919;SDS011;63804;53.120;8.764;2024-03-23T09:35:39;12.48;;;2.63;;
54919;SDS011;63804;53.120;8.764;2024-03-23T09:38:06;11.05;;;2.42;;
54919;SDS011;63804;53.120;8.764;2024-03-23T09:40:33;10.85;;;2.30;;
54919;SDS011;63804;53.120;8.764;2024-03-23T09:42:59;13.70;;;2.42;;
54919;SDS011;63804;53.120;8.764;2024-03-23T09:45:28;15.00;;;2.92;;
54919;SDS011;63804;53.120;8.764;2024-03-23T09:47:55;10.65;;;2.78;;
54919;SDS011;63804;53.120;8.764;2024-03-23T09:50:22;9.30;;;2.45;;
54919;SDS011;63804;53.120;8.764;2024-03-23T09:52:48;12.75;;;2.17;;
54919;SDS011;63804;53.120;8.764;2024-03-23T09:55:15;12.63;;;3.05;;
54919;SDS011;63804;53.120;8.764;2024-03-23T09:57:41;13.40;;;3.08;;
54919;SDS011;63804;53.120;8.764;2024-03-23T10:00:08;8.95;;;1.95;;
54919;SDS011;63804;53.120;8.764;2024-03-23T10:02:35;10.02;;;2.25;;
54919;SDS011;63804;53.120;8.764;2024-03-23T10:05:01;11.68;;;2.33;;
54919;SDS011;63804;53.120;8.764;2024-03-23T10:07:27;9.05;;;2.05;;
54919;SDS011;63804;53.120;8.764;2024-03-23T10:09:56;6.03;;;1.90;;
54919;SDS011;63804;53.120;8.764;2024-03-23T10:12:22;10.68;;;2.15;;
54919;SDS011;63804;53.120;8.764;2024-03-23T10:14:50;10.93;;;2.20;;
54919;SDS011;63804;53.120;8.764;2024-03-23T10:17:19;8.02;;;1.70;;
54919;SDS011;63804;53.120;8.764;2024-03-23T10:19:50;10.90;;;2.28;;
54919;SDS011;63804;53.120;8.764;2024-03-23T10:22:18;12.23;;;2.17;;
54919;SDS011;63804;53.120;8.764;2024-03-23T10:24:48;6.93;;;2.03;;
54919;SDS011;63804;53.120;8.764;2024-03-23T10:27:15;9.75;;;2.30;;
54919;SDS011;63804;53.120;8.764;2024-03-23T10:29:43;6.93;;;1.83;;
54919;SDS011;63804;53.120;8.764;2024-03-23T10:32:18;13.60;;;2.33;;
54919;SDS011;63804;53.120;8.764;2024-03-23T10:34:45;13.77;;;2.10;;
54919;SDS011;63804;53.120;8.764;2024-03-23T10:37:11;9.25;;;1.90;;
54919;SDS011;63804;53.120;8.764;2024-03-23T10:39:38;11.13;;;1.85;;
54919;SDS011;63804;53.120;8.764;2024-03-23T10:42:08;10.07;;;1.90;;
54919;SDS011;63804;53.120;8.764;2024-03-23T10:44:38;9.30;;;2.00;;
54919;SDS011;63804;53.120;8.764;2024-03-23T10:47:04;12.05;;;2.60;;
54919;SDS011;63804;53.120;8.764;2024-03-23T10:49:50;10.75;;;2.47;;
54919;SDS011;63804;53.120;8.764;2024-03-23T10:52:37;9.52;;;2.17;;
54919;SDS011;63804;53.120;8.764;2024-03-23T10:55:23;6.72;;;1.95;;
54919;SDS011;63804;53.120;8.764;2024-03-23T10:58:09;7.78;;;1.48;;
54919;SDS011;63804;53.120;8.764;2024-03-23T11:00:58;8.00;;;1.83;;
54919;SDS011;63804;53.120;8.764;2024-03-23T11:03:45;9.48;;;1.92;;
54919;SDS011;63804;53.120;8.764;2024-03-23T11:06:38;10.85;;;2.38;;
54919;SDS011;63804;53.120;8.764;2024-03-23T11:15:11;7.80;;;1.77;;
54919;SDS011;63804;53.120;8.764;2024-03-23T11:18:06;8.77;;;1.90;;
54919;SDS011;63804;53.120;8.764;2024-03-23T11:20:57;6.85;;;2.10;;
54919;SDS011;63804;53.120;8.764;2024-03-23T11:23:43;10.02;;;2.08;;
54919;SDS011;63804;53.120;8.764;2024-03-23T11:26:29;8.50;;;1.70;;
54919;SDS011;63804;53.120;8.764;2024-03-23T11:29:16;9.25;;;1.63;;
54919;SDS011;63804;53.120;8.764;2024-03-23T11:32:03;8.18;;;2.03;;
54919;SDS011;63804;53.120;8.764;2024-03-23T11:34:50;8.40;;;1.95;;
54919;SDS011;63804;53.120;8.764;2024-03-23T11:37:36;8.40;;;1.67;;
54919;SDS011;63804;53.120;8.764;2024-03-23T11:40:23;10.88;;;1.77;;
54919;SDS011;63804;53.120;8.764;2024-03-23T11:43:09;8.95;;;1.95;;
54919;SDS011;63804;53.120;8.764;2024-03-23T11:45:57;12.30;;;2.15;;
54919;SDS011;63804;53.120;8.764;2024-03-23T11:48:49;5.47;;;1.50;;
54919;SDS011;63804;53.120;8.764;2024-03-23T11:51:36;9.00;;;1.75;;
54919;SDS011;63804;53.120;8.764;2024-03-23T11:54:23;11.13;;;1.73;;
54919;SDS011;63804;53.120;8.764;2024-03-23T11:57:10;6.85;;;1.60;;
54919;SDS011;63804;53.120;8.764;2024-03-23T11:59:56;10.07;;;1.50;;
54919;SDS011;63804;53.120;8.764;2024-03-23T12:02:42;8.40;;;1.60;;
54919;SDS011;63804;53.120;8.764;2024-03-23T12:05:28;6.60;;;1.60;;
54919;SDS011;63804;53.120;8.764;2024-03-23T12:08:28;8.82;;;1.88;;
54919;SDS011;63804;53.120;8.764;2024-03-23T12:11:15;7.13;;;1.75;;
54919;SDS011;63804;53.120;8.764;2024-03-23T12:14:02;12.52;;;1.58;;
54919;SDS011;63804;53.120;8.764;2024-03-23T12:16:48;9.82;;;2.17;;
54919;SDS011;63804;53.120;8.764;2024-03-23T12:19:34;2.65;;;0.60;;
54919;SDS011;63804;53.120;8.764;2024-03-23T12:22:23;2.88;;;0.77;;
54919;SDS011;63804;53.120;8.764;2024-03-23T12:25:09;2.40;;;0.68;;
54919;SDS011;63804;53.120;8.764;2024-03-23T12:27:58;4.15;;;0.70;;
54919;SDS011;63804;53.120;8.764;2024-03-23T12:30:44;3.40;;;0.60;;
54919;SDS011;63804;53.120;8.764;2024-03-23T12:33:30;2.97;;;0.90;;
54919;SDS011;63804;53.120;8.764;2024-03-23T12:36:17;7.82;;;1.92;;
54919;SDS011;63804;53.120;8.764;2024-03-23T12:39:02;5.78;;;1.75;;
54919;SDS011;63804;53.120;8.764;2024-03-23T12:41:49;7.80;;;1.90;;
54919;SDS011;63804;53.120;8.764;2024-03-23T12:44:35;8.43;;;1.33;;
54919;SDS011;63804;53.120;8.764;2024-03-23T12:47:21;4.93;;;1.23;;
54919;SDS011;63804;53.120;8.764;2024-03-23T12:50:07;2.90;;;1.08;;
54919;SDS011;63804;53.120;8.764;2024-03-23T12:52:55;5.28;;;1.00;;
54919;SDS011;63804;53.120;8.764;2024-03-23T12:55:41;5.38;;;0.98;;
54919;SDS011;63804;53.120;8.764;2024-03-23T12:58:07;2.53;;;0.60;;
54919;SDS011;63804;53.120;8.764;2024-03-23T13:00:33;3.03;;;0.68;;
54919;SDS011;63804;53.120;8.764;2024-03-23T13:02:59;5.32;;;0.90;;
54919;SDS011;63804;53.120;8.764;2024-03-23T13:05:25;7.70;;;1.50;;
54919;SDS011;63804;53.120;8.764;2024-03-23T13:07:51;7.20;;;1.35;;
54919;SDS011;63804;53.120;8.764;2024-03-23T13:10:17;4.32;;;0.90;;
54919;SDS011;63804;53.120;8.764;2024-03-23T13:12:43;2.70;;;0.88;;
54919;SDS011;63804;53.120;8.764;2024-03-23T13:15:08;6.43;;;1.00;;
54919;SDS011;63804;53.120;8.764;2024-03-23T13:17:34;5.45;;;0.85;;
54919;SDS011;63804;53.120;8.764;2024-03-23T13:20:00;7.25;;;0.85;;
54919;SDS011;63804;53.120;8.764;2024-03-23T13:22:27;5.65;;;1.40;;
54919;SDS011;63804;53.120;8.764;2024-03-23T13:24:53;6.35;;;1.15;;
54919;SDS011;63804;53.120;8.764;2024-03-23T13:27:19;6.35;;;1.55;;
54919;SDS011;63804;53.120;8.764;2024-03-23T13:29:45;9.77;;;2.03;;
54919;SDS011;63804;53.120;8.764;2024-03-23T13:32:12;8.07;;;1.23;;
54919;SDS011;63804;53.120;8.764;2024-03-23T13:34:39;4.10;;;1.02;;
54919;SDS011;63804;53.120;8.764;2024-03-23T13:37:05;8.93;;;1.20;;
54919;SDS011;63804;53.120;8.764;2024-03-23T13:39:32;3.15;;;0.90;;
54919;SDS011;63804;53.120;8.764;2024-03-23T13:41:58;5.88;;;1.05;;
54919;SDS011;63804;53.120;8.764;2024-03-23T13:44:25;4.63;;;1.17;;
54919;SDS011;63804;53.120;8.764;2024-03-23T13:46:51;5.50;;;1.17;;
54919;SDS011;63804;53.120;8.764;2024-03-23T13:49:24;9.38;;;1.20;;
54919;SDS011;63804;53.120;8.764;2024-03-23T13:51:50;4.07;;;2.03;;
54919;SDS011;63804;53.120;8.764;2024-03-23T13:54:16;5.72;;;1.60;;
54919;SDS011;63804;53.120;8.764;2024-03-23T13:56:42;4.63;;;1.30;;
54919;SDS011;63804;53.120;8.764;2024-03-23T13:59:10;6.15;;;0.90;;
54919;SDS011;63804;53.120;8.764;2024-03-23T14:01:36;4.63;;;1.17;;
54919;SDS011;63804;53.120;8.764;2024-03-23T14:04:02;3.75;;;1.17;;
54919;SDS011;63804;53.120;8.764;2024-03-23T14:06:28;3.72;;;1.23;;
54919;SDS011;63804;53.120;8.764;2024-03-23T14:08:54;3.13;;;1.20;;
54919;SDS011;63804;53.120;8.764;2024-03-23T14:11:19;3.72;;;1.02;;
54919;SDS011;63804;53.120;8.764;2024-03-23T14:13:46;3.53;;;1.00;;
54919;SDS011;63804;53.120;8.764;2024-03-23T14:16:11;3.15;;;0.85;;
54919;SDS011;63804;53.120;8.764;2024-03-23T14:18:37;6.40;;;1.20;;
54919;SDS011;63804;53.120;8.764;2024-03-23T14:21:03;5.60;;;1.90;;
54919;SDS011;63804;53.120;8.764;2024-03-23T14:23:30;6.03;;;1.23;;
54919;SDS011;63804;53.120;8.764;2024-03-23T14:25:59;6.82;;;2.15;;
54919;SDS011;63804;53.120;8.764;2024-03-23T14:28:26;8.48;;;3.00;;
54919;SDS011;63804;53.120;8.764;2024-03-23T14:30:52;5.50;;;1.80;;
54919;SDS011;63804;53.120;8.764;2024-03-23T14:33:21;11.43;;;2.75;;
54919;SDS011;63804;53.120;8.764;2024-03-23T14:35:54;7.32;;;1.40;;
54919;SDS011;63804;53.120;8.764;2024-03-23T14:38:23;6.53;;;1.55;;
54919;SDS011;63804;53.120;8.764;2024-03-23T14:40:49;6.15;;;1.40;;
54919;SDS011;63804;53.120;8.764;2024-03-23T14:43:18;6.30;;;1.30;;
54919;SDS011;63804;53.120;8.764;2024-03-23T14:48:35;5.53;;;1.17;;
54919;SDS011;63804;53.120;8.764;2024-03-23T14:51:02;6.55;;;1.42;;
54919;SDS011;63804;53.120;8.764;2024-03-23T14:53:32;7.75;;;1.48;;
54919;SDS011;63804;53.120;8.764;2024-03-23T14:56:00;6.40;;;1.27;;
54919;SDS011;63804;53.120;8.764;2024-03-23T14:58:28;5.82;;;1.40;;
54919;SDS011;63804;53.120;8.764;2024-03-23T15:01:01;3.42;;;0.90;;
54919;SDS011;63804;53.120;8.764;2024-03-23T15:03:34;5.63;;;1.27;;
54919;SDS011;63804;53.120;8.764;2024-03-23T15:06:01;5.32;;;1.13;;
54919;SDS011;63804;53.120;8.764;2024-03-23T15:08:28;4.65;;;0.82;;
54919;SDS011;63804;53.120;8.764;2024-03-23T15:10:54;7.97;;;1.70;;
54919;SDS011;63804;53.120;8.764;2024-03-23T15:13:24;7.05;;;1.30;;
54919;SDS011;63804;53.120;8.764;2024-03-23T15:15:50;9.50;;;1.67;;
54919;SDS011;63804;53.120;8.764;2024-03-23T15:18:17;6.32;;;1.60;;
54919;SDS011;63804;53.120;8.764;2024-03-23T15:20:58;5.50;;;1.33;;
54919;SDS011;63804;53.120;8.764;2024-03-23T15:23:29;7.10;;;1.75;;
54919;SDS011;63804;53.120;8.764;2024-03-23T15:25:56;11.93;;;1.60;;
54919;SDS011;63804;53.120;8.764;2024-03-23T15:28:22;12.77;;;2.00;;
54919;SDS011;63804;53.120;8.764;2024-03-23T15:30:49;7.20;;;1.40;;
54919;SDS011;63804;53.120;8.764;2024-03-23T15:33:15;11.70;;;1.58;;
54919;SDS011;63804;53.120;8.764;2024-03-23T15:35:41;3.90;;;1.20;;
54919;SDS011;63804;53.120;8.764;2024-03-23T15:38:07;5.65;;;1.40;;
54919;SDS011;63804;53.120;8.764;2024-03-23T15:40:33;6.25;;;1.42;;
54919;SDS011;63804;53.120;8.764;2024-03-23T15:42:59;4.70;;;1.02;;
54919;SDS011;63804;53.120;8.764;2024-03-23T15:45:26;9.20;;;1.33;;
54919;SDS011;63804;53.120;8.764;2024-03-23T15:47:52;6.65;;;1.60;;
54919;SDS011;63804;53.120;8.764;2024-03-23T15:50:18;7.57;;;1.55;;
54919;SDS011;63804;53.120;8.764;2024-03-23T15:52:47;7.90;;;1.88;;